Port Orford, OR

1:25 AM PST on December 08, 2016 (GMT -0800)
Port Orford RV Village | | Change Station

Elev 47 ft 42.76 °N, 124.49 °W | Updated 3 seconds ago

Overcast
Overcast
42.0 °F
Feels Like 42 °F
N
0.0
Wind Variable Wind from West
Gusts 1.0 mph

Today
High -- | Low -- °F
--% Chance of Precip.
Yesterday
High -- | Low -- °F
Precip. -- in
Pressure 29.92 in
Visibility 10.0 miles
Clouds Overcast 3400 ft
Windchill 42 °F
Dew Point 39 °F
Humidity 90%
Rainfall 0.00 in
Snow Depth Not available.
7:36 AM 4:44 PM
First Quarter, 61% visible
METAR KOTH 080915Z 11008KT 10SM OVC034 05/00 A2992 RMK AO1
Pressure 29.92 in
Visibility 10.0 miles
Clouds Overcast 3400 ft
Windchill 42 °F
Dew Point 39 °F
Humidity 90%
Rainfall 0.00 in
Snow Depth Not available.
7:36 AM 4:44 PM
First Quarter, 61% visible
METAR KOTH 080915Z 11008KT 10SM OVC034 05/00 A2992 RMK AO1

10-Day Weather Forecast

Almanac

Astronomy

Dec. 08, 2016 Rise Set
Actual Time
Civil Twilight
Nautical Twilight
Astronomical Twilight
Moon
Length of Visible Light
Length of Day
Tomorrow will be .
, % of the Moon is Illuminated

Today's Extremes

State Highs State Lows

Community

WunderPhotos

Upload Photos

1,956,259 photos uploaded!

WunderBlog® & News

Nearby

Air Quality

  Air Quality AQ Index Pollutant
Not available.

Snow Depth

Station Depth Elevation

Earthquake Activity

City Distance Mag. Time & Date
Minimum magnitude displayed is 2.5.

Coastal Water Temperatures

Place Temperature

Stations

Nearby Weather Stations

Station Location Temp. Windchill Dew Point Humidity Wind Precip. Elev Updated Type
                   

Watches & Warnings

There are currently no watches in effect.